createdAt,value
2018-03-16T00:00:12.578Z,8.28
2018-03-16T00:01:12.473Z,8.35
2018-03-16T00:03:05.530Z,8.32
2018-03-16T00:04:05.430Z,8.30
2018-03-16T00:05:58.487Z,8.33
2018-03-16T00:06:58.391Z,8.29
2018-03-16T00:08:51.544Z,8.29
2018-03-16T00:09:51.344Z,8.28
2018-03-16T00:11:44.397Z,8.30
2018-03-16T00:12:44.302Z,8.22
2018-03-16T00:14:37.454Z,8.25
2018-03-16T00:15:37.256Z,8.25
2018-03-16T00:17:30.422Z,8.25
2018-03-16T00:18:30.205Z,8.32
2018-03-16T00:20:23.364Z,8.29
2018-03-16T00:21:23.160Z,8.29
2018-03-16T00:23:16.322Z,8.22
2018-03-16T00:24:16.120Z,8.22
2018-03-16T00:26:09.274Z,8.22
2018-03-16T00:27:09.074Z,8.29
2018-03-16T00:29:02.228Z,8.21
2018-03-16T00:30:02.031Z,8.18
2018-03-16T00:31:55.012Z,8.17
2018-03-16T00:32:54.982Z,8.15
2018-03-16T00:34:48.142Z,8.20
2018-03-16T00:35:47.940Z,8.15
2018-03-16T00:37:41.093Z,8.18
2018-03-16T00:38:40.911Z,8.10
2018-03-16T00:40:34.049Z,8.25
2018-03-16T00:41:33.856Z,8.20
2018-03-16T00:43:27.004Z,8.14
2018-03-16T00:44:26.807Z,8.22
2018-03-16T00:46:19.963Z,8.14
2018-03-16T00:47:19.758Z,8.20
2018-03-16T00:49:12.914Z,8.18
2018-03-16T00:50:12.712Z,8.21
2018-03-16T00:52:05.871Z,8.20
2018-03-16T00:53:05.668Z,8.18
2018-03-16T00:54:58.834Z,8.21
2018-03-16T00:55:58.624Z,8.20
2018-03-16T00:57:51.782Z,8.18
2018-03-16T00:58:51.578Z,8.21
2018-03-16T01:00:44.740Z,8.18
2018-03-16T01:01:44.537Z,8.17
2018-03-16T01:03:37.695Z,8.30
2018-03-16T01:04:37.490Z,8.22
2018-03-16T01:06:30.650Z,8.25
2018-03-16T01:07:30.445Z,8.18
2018-03-16T01:09:23.604Z,8.21
2018-03-16T01:10:23.402Z,8.20
2018-03-16T01:12:16.561Z,8.18
2018-03-16T01:13:16.354Z,8.15
2018-03-16T01:15:09.518Z,8.18
2018-03-16T01:16:09.309Z,8.20
2018-03-16T01:18:02.472Z,8.21
2018-03-16T01:19:02.279Z,8.29
2018-03-16T01:20:55.428Z,8.18
2018-03-16T01:21:55.219Z,8.15
2018-03-16T01:23:48.381Z,8.14
2018-03-16T01:24:48.181Z,8.17
2018-03-16T01:26:41.235Z,8.12
2018-03-16T01:27:41.131Z,8.18
2018-03-16T01:29:34.191Z,8.18
2018-03-16T01:30:34.089Z,8.17
2018-03-16T01:32:27.146Z,8.15
2018-03-16T01:33:27.046Z,8.15
2018-03-16T01:35:19.999Z,8.10
2018-03-16T01:36:19.901Z,8.15
2018-03-16T01:38:12.851Z,8.22
2018-03-16T01:39:12.756Z,8.11
2018-03-16T01:41:05.704Z,8.12
2018-03-16T01:42:05.606Z,8.10
2018-03-16T01:43:58.556Z,8.10
2018-03-16T01:44:58.459Z,8.14
2018-03-16T01:46:51.408Z,8.15
2018-03-16T01:47:51.311Z,8.12
2018-03-16T01:49:44.262Z,8.12
2018-03-16T01:50:44.162Z,8.17
2018-03-16T01:52:37.114Z,8.12
2018-03-16T01:53:37.016Z,8.21
2018-03-16T01:55:29.967Z,8.10
2018-03-16T01:56:29.870Z,8.17
2018-03-16T01:58:22.820Z,8.07
2018-03-16T01:59:22.722Z,8.07
2018-03-16T02:01:15.672Z,8.08
2018-03-16T02:02:15.574Z,8.11
2018-03-16T02:04:08.526Z,8.15
2018-03-16T02:05:08.428Z,8.21
2018-03-16T02:07:01.485Z,8.08
2018-03-16T02:08:01.380Z,8.08
2018-03-16T02:09:54.439Z,8.07
2018-03-16T02:10:54.336Z,8.10
2018-03-16T02:12:47.392Z,8.11
2018-03-16T02:13:47.292Z,8.18
2018-03-16T02:15:40.348Z,8.10
2018-03-16T02:16:40.247Z,8.21
2018-03-16T02:18:33.301Z,8.14
2018-03-16T02:19:33.204Z,8.11
2018-03-16T02:21:26.257Z,8.11
2018-03-16T02:22:26.154Z,8.10
2018-03-16T02:24:19.313Z,8.18
2018-03-16T02:25:19.111Z,8.08
2018-03-16T02:27:12.273Z,8.08
2018-03-16T02:28:12.068Z,8.12
2018-03-16T02:30:05.125Z,8.12
2018-03-16T02:31:05.022Z,8.07
2018-03-16T02:32:58.016Z,8.18
2018-03-16T02:33:57.980Z,8.12
2018-03-16T02:35:51.138Z,8.08
2018-03-16T02:36:50.936Z,8.03
2018-03-16T02:38:44.095Z,8.12
2018-03-16T02:39:43.890Z,8.07
2018-03-16T02:41:37.046Z,8.12
2018-03-16T02:42:36.844Z,8.10
2018-03-16T02:44:30.007Z,7.99
2018-03-16T02:45:29.800Z,8.04
2018-03-16T02:47:22.958Z,7.97
2018-03-16T02:48:22.755Z,7.96
2018-03-16T02:50:15.916Z,7.97
2018-03-16T02:51:15.711Z,8.00
2018-03-16T02:53:08.870Z,8.08
2018-03-16T02:54:08.666Z,8.07
2018-03-16T02:56:01.723Z,8.03
2018-03-16T02:57:01.624Z,8.00
2018-03-16T02:58:54.781Z,8.10
2018-03-16T02:59:54.575Z,8.07
2018-03-16T03:01:47.742Z,8.07
2018-03-16T03:02:47.540Z,7.97
2018-03-16T03:04:40.699Z,8.08
2018-03-16T03:05:40.497Z,8.04
2018-03-16T03:07:33.644Z,8.07
2018-03-16T03:08:33.444Z,7.99
2018-03-16T03:10:26.600Z,8.10
2018-03-16T03:11:26.403Z,7.96
2018-03-16T03:13:19.584Z,8.10
2018-03-16T03:14:19.353Z,7.99
2018-03-16T03:16:12.520Z,8.04
2018-03-16T03:17:12.309Z,8.10
2018-03-16T03:19:05.472Z,8.07
2018-03-16T03:20:05.263Z,8.04
2018-03-16T03:21:58.430Z,8.00
2018-03-16T03:22:58.227Z,7.96
2018-03-16T03:24:51.380Z,8.02
2018-03-16T03:25:51.182Z,7.93
2018-03-16T03:27:44.335Z,7.89
2018-03-16T03:28:44.129Z,7.89
2018-03-16T03:30:37.290Z,7.93
2018-03-16T03:31:37.093Z,7.90
2018-03-16T03:33:30.246Z,7.92
2018-03-16T03:34:30.045Z,7.85
2018-03-16T03:36:23.199Z,7.78
2018-03-16T03:37:23.000Z,7.82
2018-03-16T03:39:16.156Z,7.77
2018-03-16T03:40:15.949Z,7.77
2018-03-16T03:42:09.009Z,7.77
2018-03-16T03:43:08.909Z,7.60
2018-03-16T03:45:01.965Z,7.60
2018-03-16T03:46:01.859Z,7.66
2018-03-16T03:47:54.915Z,7.56
2018-03-16T03:48:54.819Z,7.62
2018-03-16T03:50:47.879Z,7.63
2018-03-16T03:51:47.774Z,7.69
2018-03-16T03:53:40.726Z,7.67
2018-03-16T03:54:40.630Z,7.69
2018-03-16T03:56:33.581Z,7.62
2018-03-16T03:57:33.483Z,7.74
2018-03-16T03:59:27.459Z,7.67
2018-03-16T04:00:26.337Z,7.71
2018-03-16T04:02:19.285Z,7.71
2018-03-16T04:03:19.185Z,7.79
2018-03-16T04:05:12.083Z,7.75
2018-03-16T04:06:12.042Z,7.66
2018-03-16T04:08:04.993Z,7.72
2018-03-16T04:09:04.894Z,7.82
2018-03-16T04:10:57.840Z,7.84
2018-03-16T04:11:57.745Z,7.79
2018-03-16T04:13:50.705Z,7.82
2018-03-16T04:14:50.657Z,7.81
2018-03-16T04:16:43.550Z,7.93
2018-03-16T04:17:43.454Z,7.87
2018-03-16T04:19:36.402Z,7.79
2018-03-16T04:20:36.301Z,7.81
2018-03-16T04:22:29.353Z,7.96
2018-03-16T04:23:29.258Z,7.87
2018-03-16T04:25:22.209Z,7.87
2018-03-16T04:26:22.110Z,7.82
2018-03-16T04:28:15.162Z,7.85
2018-03-16T04:29:15.064Z,7.92
2018-03-16T04:31:08.121Z,7.84
2018-03-16T04:32:08.018Z,7.93
2018-03-16T04:34:01.005Z,7.90
2018-03-16T04:35:00.973Z,7.87
2018-03-16T04:36:54.030Z,7.87
2018-03-16T04:37:53.930Z,7.87
2018-03-16T04:39:46.982Z,7.87
2018-03-16T04:40:46.883Z,7.89
2018-03-16T04:42:40.052Z,7.90
2018-03-16T04:43:39.840Z,7.87
2018-03-16T04:45:32.998Z,7.90
2018-03-16T04:46:32.796Z,7.90
2018-03-16T04:48:25.850Z,7.94
2018-03-16T04:49:25.753Z,7.92
2018-03-16T04:51:18.909Z,7.99
2018-03-16T04:52:18.705Z,7.89
2018-03-16T04:54:11.864Z,7.93
2018-03-16T04:55:11.659Z,7.87
2018-03-16T04:57:04.822Z,7.92
2018-03-16T04:58:04.617Z,7.94
2018-03-16T04:59:57.773Z,7.94
2018-03-16T05:00:57.569Z,7.89
2018-03-16T05:02:50.732Z,7.90
2018-03-16T05:03:50.531Z,7.93
2018-03-16T05:05:43.692Z,7.92
2018-03-16T05:06:43.481Z,7.85
2018-03-16T05:08:36.643Z,7.97
2018-03-16T05:09:36.437Z,7.99
2018-03-16T05:11:29.596Z,8.02
2018-03-16T05:12:29.391Z,7.93
2018-03-16T05:14:22.552Z,7.96
2018-03-16T05:15:22.349Z,7.97
2018-03-16T05:17:15.542Z,7.94
2018-03-16T05:18:15.304Z,8.02
2018-03-16T05:20:08.464Z,8.00
2018-03-16T05:21:08.260Z,8.03
2018-03-16T05:23:01.418Z,7.94
2018-03-16T05:24:01.214Z,8.00
2018-03-16T05:25:54.371Z,7.93
2018-03-16T05:26:54.171Z,7.97
2018-03-16T05:28:47.332Z,8.00
2018-03-16T05:29:47.125Z,8.02
2018-03-16T05:31:40.282Z,8.03
2018-03-16T05:32:40.080Z,8.03
2018-03-16T05:34:33.241Z,8.04
2018-03-16T05:35:33.034Z,7.97
2018-03-16T05:37:26.196Z,8.07
2018-03-16T05:38:25.988Z,8.02
2018-03-16T05:40:19.153Z,7.96
2018-03-16T05:41:18.945Z,8.00
2018-03-16T05:43:12.106Z,8.10
2018-03-16T05:44:11.899Z,8.03
2018-03-16T05:46:05.061Z,8.04
2018-03-16T05:47:04.858Z,8.10
2018-03-16T05:48:58.016Z,8.07
2018-03-16T05:49:57.811Z,8.07
2018-03-16T05:51:50.972Z,8.10
2018-03-16T05:52:50.765Z,7.99
2018-03-16T05:54:43.926Z,7.99
2018-03-16T05:55:43.723Z,8.08
2018-03-16T05:57:36.887Z,8.08
2018-03-16T05:58:36.675Z,8.07
2018-03-16T06:00:29.737Z,8.07
2018-03-16T06:01:29.630Z,8.03
2018-03-16T06:03:22.690Z,8.11
2018-03-16T06:04:22.591Z,8.12
2018-03-16T06:06:15.646Z,8.10
2018-03-16T06:07:15.567Z,8.14
2018-03-16T06:09:08.499Z,8.14
2018-03-16T06:10:08.402Z,8.10
2018-03-16T06:12:01.351Z,8.08
2018-03-16T06:13:01.253Z,8.07
2018-03-16T06:14:54.204Z,8.10
2018-03-16T06:15:54.106Z,8.11
2018-03-16T06:17:47.060Z,8.08
2018-03-16T06:18:46.959Z,8.11
2018-03-16T06:20:39.917Z,8.21
2018-03-16T06:21:39.814Z,8.14
2018-03-16T06:23:32.769Z,8.11
2018-03-16T06:24:32.672Z,8.12
2018-03-16T06:26:25.622Z,8.15
2018-03-16T06:27:25.515Z,8.14
2018-03-16T06:29:18.470Z,8.18
2018-03-16T06:30:18.377Z,8.12
2018-03-16T06:32:11.322Z,8.21
2018-03-16T06:33:11.223Z,8.20
2018-03-16T06:35:04.175Z,8.22
2018-03-16T06:36:04.079Z,8.26
2018-03-16T06:37:57.130Z,8.29
2018-03-16T06:38:57.030Z,8.29
2018-03-16T06:40:50.102Z,8.36
2018-03-16T06:41:49.984Z,8.32
2018-03-16T06:43:43.040Z,8.37
2018-03-16T06:44:43.043Z,8.36
2018-03-16T06:46:35.994Z,8.40
2018-03-16T06:47:35.894Z,8.45
2018-03-16T06:49:28.950Z,8.44
2018-03-16T06:50:28.852Z,8.45
2018-03-16T06:52:21.909Z,8.53
2018-03-16T06:53:21.803Z,8.54
2018-03-16T06:55:14.866Z,8.58
2018-03-16T06:56:14.768Z,8.55
2018-03-16T06:57:14.849Z,8.62
2018-03-16T06:58:14.706Z,8.65
2018-03-16T06:59:14.761Z,8.71
2018-03-16T07:00:14.662Z,8.57
2018-03-16T07:01:14.774Z,8.68
2018-03-16T07:02:14.613Z,8.62
2018-03-16T07:03:14.694Z,8.71
2018-03-16T07:04:14.561Z,8.66
2018-03-16T07:05:14.704Z,8.68
2018-03-16T07:06:14.506Z,8.75
2018-03-16T07:07:14.611Z,8.69
2018-03-16T07:08:14.459Z,8.72
2018-03-16T07:09:14.524Z,8.65
2018-03-16T07:10:14.408Z,8.66
2018-03-16T07:11:14.537Z,8.75
2018-03-16T07:12:14.360Z,8.75
2018-03-16T07:13:14.449Z,8.75
2018-03-16T07:14:14.310Z,8.83
2018-03-16T07:15:14.359Z,8.78
2018-03-16T07:16:14.257Z,8.78
2018-03-16T07:17:14.375Z,8.65
2018-03-16T07:18:14.213Z,8.68
2018-03-16T07:19:14.285Z,8.73
2018-03-16T07:20:14.183Z,8.69
2018-03-16T07:21:14.300Z,8.78
2018-03-16T07:22:14.106Z,8.69
2018-03-16T07:23:14.259Z,8.81
2018-03-16T07:24:14.059Z,8.81
2018-03-16T07:25:14.123Z,8.84
2018-03-16T07:26:14.026Z,8.81
2018-03-16T07:27:14.145Z,8.86
2018-03-16T07:28:14.042Z,8.68
2018-03-16T07:29:14.049Z,8.71
2018-03-16T07:30:13.914Z,8.73
2018-03-16T07:31:13.879Z,8.79
2018-03-16T07:32:13.976Z,8.84
2018-03-16T07:33:13.831Z,8.81
2018-03-16T07:34:13.913Z,8.81
2018-03-16T07:35:13.807Z,8.81
2018-03-16T07:36:13.760Z,8.84
2018-03-16T07:37:13.751Z,8.87
2018-03-16T07:38:13.811Z,8.88
2018-03-16T07:39:13.681Z,8.81
2018-03-16T07:40:13.721Z,8.90
2018-03-16T07:41:13.690Z,8.86
2018-03-16T07:42:13.633Z,8.88
2018-03-16T07:43:13.590Z,8.88
2018-03-16T07:44:13.647Z,8.87
2018-03-16T07:45:13.536Z,8.93
2018-03-16T07:46:13.557Z,8.96
2018-03-16T07:47:13.484Z,8.97
2018-03-16T07:48:13.569Z,8.86
2018-03-16T07:49:13.437Z,8.94
2018-03-16T07:50:13.478Z,8.99
2018-03-16T07:51:13.382Z,8.96
2018-03-16T07:52:13.391Z,8.97
2018-03-16T07:53:13.331Z,9.09
2018-03-16T07:54:13.410Z,8.97
2018-03-16T07:55:13.286Z,9.05
2018-03-16T07:56:13.322Z,9.04
2018-03-16T07:57:13.233Z,9.09
2018-03-16T07:58:13.235Z,9.09
2018-03-16T07:59:13.185Z,9.12
2018-03-16T08:00:13.245Z,9.09
2018-03-16T08:01:13.135Z,9.16
2018-03-16T08:02:13.156Z,9.12
2018-03-16T08:03:13.084Z,9.16
2018-03-16T08:04:13.170Z,9.21
2018-03-16T08:05:13.032Z,9.16
2018-03-16T08:06:13.081Z,9.16
2018-03-16T08:07:12.993Z,9.15
2018-03-16T08:08:12.995Z,9.18
2018-03-16T08:09:13.054Z,9.15
2018-03-16T08:10:13.119Z,9.23
2018-03-16T08:11:12.887Z,9.13
2018-03-16T08:12:12.910Z,9.28
2018-03-16T08:13:12.837Z,9.27
2018-03-16T08:14:12.829Z,9.31
2018-03-16T08:15:12.793Z,9.32
2018-03-16T08:16:12.850Z,9.30
2018-03-16T08:17:12.738Z,9.35
2018-03-16T08:18:12.754Z,9.31
2018-03-16T08:19:12.694Z,9.39
2018-03-16T08:20:12.770Z,9.32
2018-03-16T08:21:12.636Z,9.48
2018-03-16T08:22:12.682Z,9.42
2018-03-16T08:23:12.590Z,9.48
2018-03-16T08:24:12.596Z,9.53
2018-03-16T08:25:12.541Z,9.46
2018-03-16T08:26:12.606Z,9.50
2018-03-16T08:27:12.490Z,9.56
2018-03-16T08:28:12.572Z,9.56
2018-03-16T08:29:12.440Z,9.57
2018-03-16T08:30:12.445Z,9.63
2018-03-16T08:31:12.390Z,9.61
2018-03-16T08:32:12.444Z,9.56
2018-03-16T08:33:12.341Z,9.58
2018-03-16T08:34:12.355Z,9.56
2018-03-16T08:35:12.291Z,9.66
2018-03-16T08:36:12.369Z,9.60
2018-03-16T08:37:12.248Z,9.63
2018-03-16T08:38:12.281Z,9.61
2018-03-16T08:39:12.220Z,9.64
2018-03-16T08:40:12.294Z,9.61
2018-03-16T08:41:12.145Z,9.63
2018-03-16T08:42:12.206Z,9.66
2018-03-16T08:43:12.100Z,9.61
2018-03-16T08:44:12.115Z,9.56
2018-03-16T08:45:12.048Z,9.53
2018-03-16T08:46:12.173Z,9.57
2018-03-16T08:47:12.003Z,9.60
2018-03-16T08:48:12.043Z,9.60
2018-03-16T08:49:11.950Z,9.56
2018-03-16T08:50:11.954Z,9.56
2018-03-16T08:51:11.966Z,9.60
2018-03-16T08:52:11.879Z,9.56
2018-03-16T08:53:11.872Z,9.61
2018-03-16T08:54:11.830Z,9.52
2018-03-16T08:55:11.889Z,9.57
2018-03-16T08:56:11.892Z,9.61
2018-03-16T08:57:11.754Z,9.60
2018-03-16T08:58:11.804Z,9.56
2018-03-16T08:59:11.700Z,9.48
2018-03-16T09:00:11.717Z,9.49
2018-03-16T09:01:11.663Z,9.58
2018-03-16T09:02:11.731Z,9.48
2018-03-16T09:03:11.606Z,9.50
2018-03-16T09:04:11.642Z,9.52
2018-03-16T09:05:11.558Z,9.60
2018-03-16T09:06:11.552Z,9.56
2018-03-16T09:07:11.514Z,9.63
2018-03-16T09:08:11.566Z,9.58
2018-03-16T09:09:11.459Z,9.60
2018-03-16T09:10:11.433Z,9.61
2018-03-16T09:11:11.490Z,9.61
2018-03-16T09:12:11.387Z,9.61
2018-03-16T09:13:11.502Z,9.64
2018-03-16T09:14:11.344Z,9.60
2018-03-16T09:15:11.412Z,9.64
2018-03-16T09:16:11.289Z,9.64
2018-03-16T09:17:11.429Z,9.61
2018-03-16T09:18:11.301Z,9.63
2018-03-16T09:19:11.339Z,9.57
2018-03-16T09:20:11.195Z,9.49
2018-03-16T09:21:11.166Z,9.49
2018-03-16T09:22:11.259Z,9.48
2018-03-16T09:23:11.116Z,9.53
2018-03-16T09:24:11.171Z,9.49
2018-03-16T09:25:11.071Z,9.50
2018-03-16T09:26:11.046Z,9.38
2018-03-16T09:27:11.028Z,9.45
2018-03-16T09:28:11.095Z,9.43
2018-03-16T09:29:10.977Z,9.49
2018-03-16T09:30:11.005Z,9.49
2018-03-16T09:31:10.921Z,9.43
2018-03-16T09:32:10.915Z,9.48
2018-03-16T09:33:10.875Z,9.40
2018-03-16T09:34:10.929Z,9.32
2018-03-16T09:35:10.829Z,9.23
2018-03-16T09:36:10.843Z,9.27
2018-03-16T09:37:10.777Z,9.20
2018-03-16T09:38:10.852Z,9.18
2018-03-16T09:39:10.727Z,9.18
2018-03-16T09:40:10.765Z,9.16
2018-03-16T09:41:10.667Z,9.16
2018-03-16T09:42:10.679Z,9.16
2018-03-16T09:43:10.634Z,9.16
2018-03-16T09:44:10.695Z,9.15
2018-03-16T09:45:10.582Z,9.15
2018-03-16T09:46:10.604Z,9.09
2018-03-16T09:47:10.529Z,9.20
2018-03-16T09:48:10.618Z,9.13
2018-03-16T09:49:10.487Z,9.09
2018-03-16T09:50:10.530Z,9.09
2018-03-16T09:51:10.433Z,8.97
2018-03-16T09:52:10.442Z,9.01
2018-03-16T09:53:10.380Z,8.99
2018-03-16T09:54:10.454Z,8.97
2018-03-16T09:55:10.331Z,8.97
2018-03-16T09:56:10.311Z,8.97
2018-03-16T09:57:10.285Z,8.90
2018-03-16T09:58:10.278Z,8.91
2018-03-16T09:59:10.233Z,8.97
2018-03-16T10:00:10.293Z,8.96
2018-03-16T10:01:10.183Z,9.01
2018-03-16T10:02:10.239Z,8.96
2018-03-16T10:03:10.140Z,8.97
2018-03-16T10:04:10.218Z,8.93
2018-03-16T10:05:10.082Z,8.97
2018-03-16T10:06:10.129Z,8.93
2018-03-16T10:07:10.034Z,8.93
2018-03-16T10:08:10.039Z,8.84
2018-03-16T10:09:09.985Z,8.88
2018-03-16T10:10:10.055Z,8.86
2018-03-16T10:11:09.935Z,8.88
2018-03-16T10:12:09.966Z,8.90
2018-03-16T10:13:09.887Z,8.86
2018-03-16T10:14:09.981Z,8.84
2018-03-16T10:15:09.834Z,8.83
2018-03-16T10:16:09.893Z,8.86
2018-03-16T10:17:09.786Z,8.87
2018-03-16T10:18:09.807Z,8.90
2018-03-16T10:19:09.735Z,8.83
2018-03-16T10:20:09.820Z,8.91
2018-03-16T10:21:09.686Z,8.87
2018-03-16T10:22:09.729Z,8.84
2018-03-16T10:23:09.638Z,8.87
2018-03-16T10:24:09.640Z,8.91
2018-03-16T10:25:09.586Z,8.94
2018-03-16T10:26:09.655Z,8.90
2018-03-16T10:27:09.539Z,8.91
2018-03-16T10:28:09.564Z,8.93
2018-03-16T10:29:09.487Z,8.87
2018-03-16T10:30:09.476Z,8.90
2018-03-16T10:31:09.452Z,8.83
2018-03-16T10:32:09.491Z,8.87
2018-03-16T10:33:09.390Z,8.84
2018-03-16T10:34:09.402Z,8.86
2018-03-16T10:35:09.336Z,8.86
2018-03-16T10:36:09.419Z,8.91
2018-03-16T10:37:09.292Z,8.79
2018-03-16T10:38:09.336Z,8.84
2018-03-16T10:39:09.241Z,8.91
2018-03-16T10:40:09.240Z,8.93
2018-03-16T10:41:09.184Z,8.86
2018-03-16T10:42:09.261Z,8.86
2018-03-16T10:43:09.136Z,8.84
2018-03-16T10:44:09.166Z,8.81
2018-03-16T10:45:09.095Z,8.79
2018-03-16T10:46:09.077Z,8.71
2018-03-16T10:47:09.037Z,8.79
2018-03-16T10:48:09.012Z,8.72
2018-03-16T10:49:08.988Z,8.81
2018-03-16T10:50:09.001Z,8.73
2018-03-16T10:51:08.931Z,8.73
2018-03-16T10:52:09.016Z,8.81
2018-03-16T10:53:08.891Z,8.72
2018-03-16T10:54:08.928Z,8.72
2018-03-16T10:55:08.839Z,8.73
2018-03-16T10:56:08.839Z,8.71
2018-03-16T10:57:08.789Z,8.73
2018-03-16T10:58:08.854Z,8.69
2018-03-16T10:59:08.738Z,8.69
2018-03-16T11:00:08.764Z,8.62
2018-03-16T11:01:08.688Z,8.71
2018-03-16T11:02:08.680Z,8.65
2018-03-16T11:03:08.641Z,8.58
2018-03-16T11:04:08.694Z,8.62
2018-03-16T11:05:08.587Z,8.55
2018-03-16T11:06:08.608Z,8.62
2018-03-16T11:07:08.539Z,8.60
2018-03-16T11:08:08.618Z,8.54
2018-03-16T11:09:08.490Z,8.50
2018-03-16T11:10:08.531Z,8.54
2018-03-16T11:11:08.440Z,8.51
2018-03-16T11:12:08.441Z,8.54
2018-03-16T11:13:08.388Z,8.58
2018-03-16T11:14:08.457Z,8.62
2018-03-16T11:15:08.342Z,8.63
2018-03-16T11:16:08.371Z,8.57
2018-03-16T11:17:08.289Z,8.50
2018-03-16T11:18:08.280Z,8.54
2018-03-16T11:19:08.237Z,8.54
2018-03-16T11:20:08.294Z,8.47
2018-03-16T11:21:08.187Z,8.36
2018-03-16T11:22:08.205Z,8.28
2018-03-16T11:23:08.138Z,8.26
2018-03-16T11:24:08.217Z,8.21
2018-03-16T11:25:08.082Z,8.17
2018-03-16T11:26:08.131Z,8.21
2018-03-16T11:27:08.036Z,8.22
2018-03-16T11:28:08.042Z,8.22
2018-03-16T11:29:07.990Z,8.26
2018-03-16T11:30:08.057Z,8.26
2018-03-16T11:31:07.935Z,8.25
2018-03-16T11:32:07.968Z,8.33
2018-03-16T11:33:07.882Z,8.29
2018-03-16T11:34:07.879Z,8.20
2018-03-16T11:35:07.842Z,8.18
2018-03-16T11:36:07.910Z,8.18
2018-03-16T11:37:07.788Z,8.11
2018-03-16T11:38:07.806Z,8.17
2018-03-16T11:39:07.737Z,8.14
2018-03-16T11:40:07.819Z,8.17
2018-03-16T11:41:07.681Z,8.12
2018-03-16T11:42:07.733Z,8.11
2018-03-16T11:43:07.634Z,8.12
2018-03-16T11:44:07.643Z,8.17
2018-03-16T11:45:07.582Z,8.17
2018-03-16T11:46:07.657Z,8.20
2018-03-16T11:47:07.528Z,8.17
2018-03-16T11:48:07.566Z,8.18
2018-03-16T11:49:07.507Z,8.18
2018-03-16T11:50:07.483Z,8.08
2018-03-16T11:51:07.427Z,8.14
2018-03-16T11:52:07.494Z,8.18
2018-03-16T11:53:07.379Z,8.14
2018-03-16T11:54:07.402Z,8.07
2018-03-16T11:55:07.325Z,8.03
2018-03-16T11:56:07.315Z,8.04
2018-03-16T11:57:07.270Z,8.11
2018-03-16T11:58:07.328Z,8.04
2018-03-16T11:59:07.227Z,8.07
2018-03-16T12:00:07.239Z,8.00
2018-03-16T12:01:07.164Z,7.94
2018-03-16T12:02:07.255Z,7.81
2018-03-16T12:03:07.122Z,7.79
2018-03-16T12:04:07.164Z,7.75
2018-03-16T12:05:07.069Z,7.66
2018-03-16T12:06:07.078Z,7.77
2018-03-16T12:07:07.024Z,7.77
2018-03-16T12:08:07.102Z,7.69
2018-03-16T12:09:06.966Z,7.78
2018-03-16T12:10:06.996Z,7.72
2018-03-16T12:11:06.965Z,7.75
2018-03-16T12:12:06.915Z,7.72
2018-03-16T12:13:06.864Z,7.63
2018-03-16T12:14:06.839Z,7.60
2018-03-16T12:15:06.936Z,7.71
2018-03-16T12:16:06.789Z,7.63
2018-03-16T12:17:06.952Z,7.74
2018-03-16T12:18:06.735Z,7.74
2018-03-16T12:19:06.711Z,7.74
2018-03-16T12:20:06.868Z,7.81
2018-03-16T12:21:06.662Z,7.77
2018-03-16T12:22:06.782Z,7.79
2018-03-16T12:23:06.608Z,7.78
2018-03-16T12:24:06.694Z,7.81
2018-03-16T12:25:06.554Z,7.78
2018-03-16T12:26:06.707Z,7.71
2018-03-16T12:27:06.506Z,7.79
2018-03-16T12:28:06.619Z,7.71
2018-03-16T12:29:06.463Z,7.78
2018-03-16T12:30:06.634Z,7.72
2018-03-16T12:31:06.403Z,7.66
2018-03-16T12:32:06.542Z,7.63
2018-03-16T12:33:06.346Z,7.69
2018-03-16T12:34:06.455Z,7.69
2018-03-16T12:35:06.297Z,7.69
2018-03-16T12:36:06.468Z,7.60
2018-03-16T12:37:06.243Z,7.60
2018-03-16T12:38:06.377Z,7.58
2018-03-16T12:39:06.193Z,7.63
2018-03-16T12:40:06.292Z,7.55
2018-03-16T12:41:06.140Z,7.56
2018-03-16T12:42:06.304Z,7.45
2018-03-16T12:43:06.093Z,7.45
2018-03-16T12:44:06.215Z,7.45
2018-03-16T12:45:06.072Z,7.42
2018-03-16T12:46:06.228Z,7.55
2018-03-16T12:47:05.984Z,7.55
2018-03-16T12:48:06.143Z,7.58
2018-03-16T12:49:05.933Z,7.52
2018-03-16T12:50:06.052Z,7.53
2018-03-16T12:51:05.887Z,7.63
2018-03-16T12:52:05.963Z,7.50
2018-03-16T12:53:05.831Z,7.71
2018-03-16T12:54:05.875Z,7.55
2018-03-16T12:55:05.777Z,7.52
2018-03-16T12:56:05.785Z,7.62
2018-03-16T12:57:05.727Z,7.53
2018-03-16T12:58:05.801Z,7.45
2018-03-16T12:59:05.673Z,7.45
2018-03-16T13:00:05.712Z,7.50
2018-03-16T13:01:05.620Z,7.58
2018-03-16T13:02:05.625Z,7.45
2018-03-16T13:03:05.571Z,7.53
2018-03-16T13:04:05.639Z,7.45
2018-03-16T13:05:05.518Z,7.56
2018-03-16T13:06:05.549Z,7.58
2018-03-16T13:07:05.465Z,7.52
2018-03-16T13:08:05.565Z,7.63
2018-03-16T13:09:05.418Z,7.58
2018-03-16T13:10:05.473Z,7.62
2018-03-16T13:11:05.362Z,7.72
2018-03-16T13:12:05.386Z,7.71
2018-03-16T13:13:05.309Z,7.53
2018-03-16T13:14:05.400Z,7.66
2018-03-16T13:15:05.256Z,7.66
2018-03-16T13:16:05.313Z,7.62
2018-03-16T13:17:05.207Z,7.67
2018-03-16T13:18:05.223Z,7.71
2018-03-16T13:19:05.159Z,7.67
2018-03-16T13:20:05.241Z,7.53
2018-03-16T13:21:05.108Z,7.59
2018-03-16T13:22:05.150Z,7.55
2018-03-16T13:23:05.050Z,7.49
2018-03-16T13:24:05.164Z,7.69
2018-03-16T13:25:05.002Z,7.58
2018-03-16T13:26:05.075Z,7.56
2018-03-16T13:27:04.947Z,7.58
2018-03-16T13:28:04.989Z,7.67
2018-03-16T13:29:04.897Z,7.56
2018-03-16T13:30:05.000Z,7.66
2018-03-16T13:31:04.848Z,7.72
2018-03-16T13:32:04.911Z,7.67
2018-03-16T13:33:04.796Z,7.59
2018-03-16T13:34:04.823Z,7.71
2018-03-16T13:35:04.741Z,7.53
2018-03-16T13:36:04.846Z,7.56
2018-03-16T13:37:04.687Z,7.58
2018-03-16T13:38:04.756Z,7.59
2018-03-16T13:39:04.644Z,7.60
2018-03-16T13:40:04.764Z,7.56
2018-03-16T13:41:04.587Z,7.71
2018-03-16T13:42:04.682Z,7.71
2018-03-16T13:43:04.532Z,7.74
2018-03-16T13:44:04.587Z,7.71
2018-03-16T13:45:04.480Z,7.69
2018-03-16T13:46:04.602Z,7.74
2018-03-16T13:47:04.428Z,7.60
2018-03-16T13:48:04.512Z,7.55
2018-03-16T13:49:04.377Z,7.66
2018-03-16T13:50:04.424Z,7.66
2018-03-16T13:51:04.325Z,7.69
2018-03-16T13:52:04.437Z,7.69
2018-03-16T13:53:04.272Z,7.59
2018-03-16T13:54:04.355Z,7.74
2018-03-16T13:55:04.226Z,7.71
2018-03-16T13:56:04.266Z,7.60
2018-03-16T13:57:04.168Z,7.66
2018-03-16T13:58:04.276Z,7.67
2018-03-16T13:59:04.119Z,7.74
2018-03-16T14:00:04.190Z,7.75
2018-03-16T14:01:04.064Z,7.75
2018-03-16T14:02:04.096Z,7.84
2018-03-16T14:03:04.010Z,7.85
2018-03-16T14:04:04.013Z,7.85
2018-03-16T14:05:04.980Z,7.92
2018-03-16T14:06:04.022Z,7.94
2018-03-16T14:07:03.918Z,7.92
2018-03-16T14:08:03.914Z,7.99
2018-03-16T14:09:03.863Z,8.02
2018-03-16T14:10:03.850Z,7.97
2018-03-16T14:11:03.815Z,8.04
2018-03-16T14:12:03.860Z,8.02
2018-03-16T14:13:03.755Z,7.94
2018-03-16T14:14:03.771Z,7.84
2018-03-16T14:15:03.702Z,7.85
2018-03-16T14:16:03.788Z,7.87
2018-03-16T14:17:03.711Z,7.85
2018-03-16T14:18:03.736Z,7.89
2018-03-16T14:19:03.601Z,7.92
2018-03-16T14:20:03.610Z,8.08
2018-03-16T14:21:04.108Z,8.00
2018-03-16T14:22:03.526Z,7.92
2018-03-16T14:23:03.496Z,7.92
2018-03-16T14:24:03.534Z,7.89
2018-03-16T14:25:03.447Z,7.96
2018-03-16T14:26:03.447Z,7.93
2018-03-16T14:27:03.457Z,7.87
2018-03-16T14:28:03.372Z,7.92
2018-03-16T14:29:03.367Z,7.92
2018-03-16T14:30:04.441Z,7.96
2018-03-16T14:31:03.477Z,7.84
2018-03-16T14:32:03.267Z,7.90
2018-03-16T14:33:03.393Z,7.93
2018-03-16T14:34:03.225Z,7.77
2018-03-16T14:35:03.307Z,7.74
2018-03-16T14:36:03.160Z,7.63
2018-03-16T14:37:03.323Z,7.63
2018-03-16T14:38:03.108Z,7.66
2018-03-16T14:39:03.128Z,7.63
2018-03-16T14:40:03.057Z,7.66
2018-03-16T14:41:03.037Z,7.63
2018-03-16T14:42:03.009Z,7.59
2018-03-16T14:43:03.049Z,7.55
2018-03-16T14:44:02.954Z,7.53
2018-03-16T14:45:02.968Z,7.58
2018-03-16T14:46:02.971Z,7.52
2018-03-16T14:47:02.875Z,7.56
2018-03-16T14:48:02.884Z,7.53
2018-03-16T14:49:02.823Z,7.53
2018-03-16T14:50:02.900Z,7.52
2018-03-16T14:51:02.771Z,7.49
2018-03-16T14:52:02.802Z,7.58
2018-03-16T14:53:02.719Z,7.62
2018-03-16T14:54:02.719Z,7.62
2018-03-16T14:55:02.678Z,7.41
2018-03-16T14:56:02.735Z,7.37
2018-03-16T14:57:02.616Z,7.23
2018-03-16T14:58:02.652Z,7.24
2018-03-16T14:59:02.566Z,7.31
2018-03-16T15:00:02.558Z,7.23
2018-03-16T15:01:02.507Z,7.24
2018-03-16T15:02:02.571Z,7.24
2018-03-16T15:03:02.459Z,7.29
2018-03-16T15:04:02.482Z,7.17
2018-03-16T15:05:02.408Z,7.13
2018-03-16T15:06:02.395Z,7.07
2018-03-16T15:07:02.357Z,7.15
2018-03-16T15:08:02.410Z,7.20
2018-03-16T15:09:02.301Z,7.13
2018-03-16T15:10:02.324Z,7.19
2018-03-16T15:11:02.258Z,7.16
2018-03-16T15:12:02.336Z,7.24
2018-03-16T15:13:02.199Z,7.23
2018-03-16T15:14:02.254Z,7.09
2018-03-16T15:15:02.145Z,7.19
2018-03-16T15:16:02.160Z,7.15
2018-03-16T15:17:02.095Z,7.08
2018-03-16T15:18:02.180Z,7.09
2018-03-16T15:19:02.038Z,7.09
2018-03-16T15:20:02.089Z,6.99
2018-03-16T15:21:01.995Z,7.05
2018-03-16T15:22:03.026Z,6.95
2018-03-16T15:23:01.935Z,6.86
2018-03-16T15:24:01.914Z,6.89
2018-03-16T15:25:01.919Z,6.86